< < Back
Terminal Aerodrome Forecast


Current Version              Previous Versions:   1  2  3  4  5  6  7  8  9  

Terminal Aerodrome Forecast

271
FTUS44 KMOB 301749
TAFPNS
TAF
KPNS 301749Z 3018/3118 12005KT P6SM SCT050 SCT200
     FM302100 21008KT P6SM SCT250
     FM310400 34002KT P6SM SCT250
     FM311500 34006KT P6SM SKC=



Latest METAR

639
SAUS70 KWBC 301800 RRI
MTRPNS
METAR KPNS 301753Z 19006KT 10SM SCT050 31/22 A3005 RMK AO2 RAB03E19
SLP175 P0000 60000 T03060217 10306 20217 58006


USA.gov is the U.S. government's official web portal to all federal, state and local government web resources and services.